Aérodrome :
LOGIN :

S'inscrire | Disclaimer

   EN    FR    IT 

 










Légende :    VFR   VFR Marginal   IFR   IFR Intensif   IFR Très Intensif
Visi : 
Plafond : 
>= 8 km
>= 3000ft
5 à 8 km
1000 à 3000 ft
1500m à 5 km
500 à 1000 ft
800 à 1500m
200 à 500 ft
< 800m
< 200 ft
Symboles :   Orages  Brouillard  Fortes neiges  Fortes précipitations  Vent > 20 kt
SIGMETs :   Divers  Orages  Givrage  Turbulence  Onde Orograph.  Cendres Volcan.







- Altitude de l'aérodrome : 433 ft
- Voir les cartes d'approche


LFOC - Chateaudun

DERNIER METAR :
  • 280730Z AUTO 20016KT 9999 -RA BKN016 BKN029 OVC047 05/03 Q0993 TEMPO 21020G35KT 4000 SHRA SCT020TCU BKN040

METARs EXPIRÉS :
  • 280700Z AUTO 20016KT 9999 -RA FEW018 BKN044 BKN060 05/03 Q0993 TEMPO 21020G35KT 4000 SHRA SCT020TCU BKN040
  • 280630Z AUTO 20015KT CAVOK 04/02 Q0994 TEMPO 21020G35KT 4000 SHRA SCT020TCU BKN040
  • 280600Z AUTO 20015KT CAVOK 04/02 Q0994
  • 280530Z AUTO 21014KT CAVOK 04/02 Q0994
  • 280500Z AUTO 21015KT CAVOK 04/02 Q0995

TAF TAF LFOC
Valide du 28 à 06h jusqu'au 01 à 03h UTC


280600Z 2806/0103 20018KT CAVOK
BECMG 2807/2808 SCT025TCU
TEMPO 2808/2811 21020G35KT 4000 SHRA SCT020TCU BKN040
TEMPO 2811/2815 27025G40KT 4000 SHRA BKN025 BKN030CB
PROB30
TEMPO 2811/2815 VRB30G45KT 1500 TSRA BKN015CB
Pas de NOTAMs connus pour ce terrain.
1 SIGMET publié pour la FIR Paris (LFFF) :
 
Turbulence forte
LFFF SIGMET 1 VALID 280400/280800 LFPW
LFFF PARIS FIR/UIR SEV TURB FCST WI N4900 W00015 - N5000 W00015 - N5115 E00200 - N5015 E00200 SFC/FL060 STNR WKN=



MET'MAP, la Météo Aéronautique d'un coup d'oeil ! - Copyright ORBIFLY Décembre 2007 - Disclaimer

ORBIFLY MET'MAP TEAM :

Programmation & Développement : Alexandra Zaïnal
Conception & Développement : Baudouin d'Aumeries
Co-Programmation & Développement : Marc-Olivier Méhu
Soutien technique & logistique : Manuel Goepfert

Contact : metmap@orbifly.com




SOURCES & CREDITS :

   NOAA